Time;durP1;ratioP1;P1;durP2;ratioP2;P2;SDS_P1;SDS_P2;PMS_P1;PMS_P2;Temp;Humidity;BMP_temperature;BMP_pressure;BME280_temperature;BME280_humidity;BME280_pressure;Samples;Min_cycle;Max_cycle;Signal;HPM_P1;HPM_P2
2022/01/11 00:00:45;;;;;;;;;;;1.50;99.90;;;;;;5073244;28;20118;-52
2022/01/11 00:03:14;;;;;;;38.30;15.35;;;1.50;99.90;;;;;;5072241;28;20389;-51
2022/01/11 00:05:50;;;;;;;36.05;15.90;;;1.40;99.90;;;;;;5071874;28;20059;-52
2022/01/11 00:08:18;;;;;;;37.22;15.10;;;1.40;99.90;;;;;;5072244;28;20045;-51
2022/01/11 00:10:51;;;;;;;43.90;17.67;;;1.40;99.90;;;;;;5072023;28;20040;-52
2022/01/11 00:13:23;;;;;;;41.05;16.23;;;1.50;99.90;;;;;;5072201;28;20040;-52
2022/01/11 00:15:50;;;;;;;42.10;17.13;;;1.40;99.90;;;;;;5071762;28;20041;-51
2022/01/11 00:18:17;;;;;;;36.97;16.30;;;1.40;99.90;;;;;;5071973;28;20048;-54
2022/01/11 00:20:44;;;;;;;45.85;17.80;;;1.50;99.90;;;;;;5072282;28;20463;-51
2022/01/11 00:25:45;;;;;;;44.70;17.70;;;1.50;99.90;;;;;;5071765;28;20493;-52
2022/01/11 00:28:14;;;;;;;43.42;17.27;;;1.50;99.90;;;;;;5071770;28;20132;-52
2022/01/11 00:30:55;;;;;;;49.17;18.98;;;1.50;99.90;;;;;;5053874;28;20048;-51
2022/01/11 00:33:36;;;;;;;46.75;19.23;;;1.40;99.90;;;;;;5071495;28;20082;-51
2022/01/11 00:36:03;;;;;;;42.97;18.83;;;1.50;99.90;;;;;;5053693;28;20044;-50
2022/01/11 00:38:36;;;;;;;46.60;18.05;;;1.40;99.90;;;;;;5071761;28;20102;-53
2022/01/11 00:41:05;;;;;;;46.63;19.08;;;1.40;99.90;;;;;;5053900;28;20053;-50
2022/01/11 00:43:34;;;;;;;42.08;18.42;;;1.40;99.90;;;;;;5071560;28;20048;-51
2022/01/11 00:46:03;;;;;;;51.25;19.52;;;1.40;99.90;;;;;;5053230;28;20416;-52
2022/01/11 00:48:30;;;;;;;44.05;18.05;;;1.40;99.90;;;;;;5071579;28;20040;-51
2022/01/11 00:50:59;;;;;;;31.83;12.80;;;1.40;99.90;;;;;;5071756;28;20467;-51
2022/01/11 00:53:26;;;;;;;48.50;18.08;;;1.50;99.90;;;;;;5071507;28;20051;-54
2022/01/11 00:55:53;;;;;;;53.13;18.50;;;1.50;99.90;;;;;;5071136;28;20037;-50
2022/01/11 00:58:21;;;;;;;46.05;18.65;;;1.50;99.90;;;;;;5053589;28;20040;-51
2022/01/11 01:00:49;;;;;;;48.88;20.02;;;1.40;99.90;;;;;;5053300;28;20080;-51
2022/01/11 01:03:17;;;;;;;46.75;18.83;;;1.40;99.90;;;;;;5052955;28;20048;-51
2022/01/11 01:05:44;;;;;;;42.97;18.20;;;1.40;99.90;;;;;;5053150;28;20071;-50
2022/01/11 01:08:11;;;;;;;52.00;21.08;;;1.50;99.90;;;;;;5053330;28;20459;-52
2022/01/11 01:10:45;;;;;;;54.40;20.23;;;1.50;99.90;;;;;;5053292;28;20047;-52
2022/01/11 01:13:19;;;;;;;53.05;20.45;;;1.50;99.90;;;;;;5053390;28;20090;-51
2022/01/11 01:15:52;;;;;;;51.42;20.02;;;1.50;99.90;;;;;;5071354;28;20115;-51
2022/01/11 01:18:34;;;;;;;50.28;19.98;;;1.50;99.90;;;;;;5070006;28;20463;-51
2022/01/11 01:21:00;;;;;;;57.88;21.83;;;1.40;99.90;;;;;;5070105;28;20524;-54
2022/01/11 01:23:27;;;;;;;58.20;20.92;;;1.50;99.90;;;;;;5069788;28;20098;-50
2022/01/11 01:25:55;;;;;;;62.78;20.70;;;1.40;99.90;;;;;;5071044;28;20101;-50
2022/01/11 01:28:22;;;;;;;55.45;21.13;;;1.50;99.90;;;;;;5071207;28;20447;-50
2022/01/11 01:30:49;;;;;;;53.53;19.73;;;1.50;99.90;;;;;;5071325;28;20045;-51
2022/01/11 01:33:16;;;;;;;57.10;21.05;;;1.50;99.90;;;;;;5052943;28;20049;-53
2022/01/11 01:35:49;;;;;;;58.53;21.10;;;1.50;99.90;;;;;;5070789;28;20044;-53
2022/01/11 01:38:22;;;;;;;53.03;19.58;;;1.50;99.90;;;;;;5069997;28;20067;-52
2022/01/11 01:40:51;;;;;;;62.72;22.90;;;1.50;99.90;;;;;;5071098;28;20047;-51
2022/01/11 01:43:18;;;;;;;55.08;21.48;;;1.50;99.90;;;;;;5071237;28;20542;-54
2022/01/11 01:45:46;;;;;;;56.97;21.55;;;1.50;99.90;;;;;;5070698;28;20463;-51
2022/01/11 01:48:13;;;;;;;;;;;1.50;99.90;;;;;;5071445;28;20076;-50
2022/01/11 01:50:41;;;;;;;59.83;21.15;;;1.50;99.90;;;;;;5071005;28;19928;-51
2022/01/11 01:53:11;;;;;;;61.67;21.13;;;1.50;99.90;;;;;;5053108;28;20068;-50
2022/01/11 01:55:40;;;;;;;53.80;20.92;;;1.50;99.90;;;;;;5052675;28;20074;-50
2022/01/11 01:58:08;;;;;;;50.25;20.58;;;1.50;99.90;;;;;;5053044;28;20044;-51
2022/01/11 02:00:41;;;;;;;55.85;21.65;;;1.50;99.90;;;;;;5052752;28;20044;-50
2022/01/11 02:03:12;;;;;;;60.00;21.27;;;1.50;99.90;;;;;;5083296;28;20090;-52
2022/01/11 02:05:40;;;;;;;58.28;20.08;;;1.50;99.90;;;;;;5072542;28;20052;-50
2022/01/11 02:08:08;;;;;;;57.78;22.02;;;1.50;99.90;;;;;;5090901;28;20047;-51
2022/01/11 02:10:39;;;;;;;52.60;20.58;;;1.40;99.90;;;;;;5089702;28;20090;-53
2022/01/11 02:13:08;;;;;;;54.47;21.52;;;1.50;99.90;;;;;;5092409;28;20126;-51
2022/01/11 02:15:36;;;;;;;58.55;22.77;;;1.50;99.90;;;;;;5075996;28;20036;-51
2022/01/11 02:18:20;;;;;;;65.93;23.08;;;1.50;99.90;;;;;;5076572;28;20097;-51
2022/01/11 02:20:50;;;;;;;53.63;21.20;;;1.50;99.90;;;;;;5076549;28;20054;-51
2022/01/11 02:23:28;;;;;;;62.38;21.80;;;1.50;99.90;;;;;;5094328;28;20082;-51
2022/01/11 02:25:57;;;;;;;61.42;21.38;;;1.50;99.90;;;;;;5076053;28;20055;-50
2022/01/11 02:28:27;;;;;;;54.67;21.80;;;1.50;99.90;;;;;;5075950;28;20032;-50
2022/01/11 02:30:56;;;;;;;60.42;22.83;;;1.50;99.90;;;;;;5092890;28;20135;-50
2022/01/11 02:33:37;;;;;;;57.22;22.27;;;1.40;99.90;;;;;;5076063;28;20488;-51
2022/01/11 02:36:30;;;;;;;60.33;22.15;;;1.40;99.90;;;;;;5075747;28;20504;-52
2022/01/11 02:39:04;;;;;;;61.72;22.15;;;1.40;99.90;;;;;;5076162;28;20496;-53
2022/01/11 02:41:32;;;;;;;59.55;23.23;;;1.40;99.90;;;;;;5075602;28;20093;-53
2022/01/11 02:44:04;;;;;;;66.18;23.25;;;1.40;99.90;;;;;;5076048;28;20044;-50
2022/01/11 02:46:31;;;;;;;;;;;1.40;99.90;;;;;;5094029;28;20123;-53
2022/01/11 02:49:00;;;;;;;69.82;23.90;;;1.40;99.90;;;;;;5075989;28;19924;-51
2022/01/11 02:51:32;;;;;;;62.88;23.83;;;1.40;99.90;;;;;;5076212;28;20051;-52
2022/01/11 02:54:00;;;;;;;45.70;16.80;;;1.40;99.90;;;;;;5075928;28;20062;-51
2022/01/11 02:56:29;;;;;;;58.97;22.00;;;1.50;99.90;;;;;;5075455;28;20428;-52
2022/01/11 02:58:57;;;;;;;63.33;24.17;;;1.50;99.90;;;;;;5075463;28;20089;-50
2022/01/11 03:01:25;;;;;;;67.25;24.80;;;1.50;99.90;;;;;;5094076;28;20109;-51
2022/01/11 03:03:52;;;;;;;62.88;24.25;;;1.50;99.90;;;;;;5093805;28;20059;-51
2022/01/11 03:06:22;;;;;;;61.42;23.08;;;1.50;99.90;;;;;;5075261;28;20139;-50
2022/01/11 03:08:49;;;;;;;51.38;21.25;;;1.60;99.90;;;;;;5075751;28;20040;-50
2022/01/11 03:11:20;;;;;;;65.05;23.40;;;1.50;99.90;;;;;;5075273;28;20051;-52
2022/01/11 03:13:49;;;;;;;66.93;23.02;;;1.50;99.90;;;;;;5075548;28;20066;-51
2022/01/11 03:16:17;;;;;;;60.03;22.63;;;1.50;99.90;;;;;;5074993;28;20036;-51
2022/01/11 03:18:45;;;;;;;57.47;22.23;;;1.50;99.90;;;;;;5093672;28;20036;-50
2022/01/11 03:21:15;;;;;;;63.20;23.25;;;1.50;99.90;;;;;;5075351;28;20450;-50
2022/01/11 03:23:43;;;;;;;62.72;24.35;;;1.40;99.90;;;;;;5074882;28;20047;-51
2022/01/11 03:26:10;;;;;;;64.18;24.45;;;1.40;99.90;;;;;;5074457;28;20500;-51
2022/01/11 03:28:39;;;;;;;65.45;23.20;;;1.50;99.90;;;;;;5075139;28;20127;-50
2022/01/11 03:31:06;;;;;;;64.15;23.73;;;1.50;99.90;;;;;;5075284;28;20050;-50
2022/01/11 03:33:43;;;;;;;46.92;17.52;;;1.60;99.90;;;;;;5059880;28;20542;-50
2022/01/11 03:36:10;;;;;;;66.95;23.73;;;1.60;99.90;;;;;;5092902;28;20051;-53
2022/01/11 03:38:37;;;;;;;62.58;22.45;;;1.60;99.90;;;;;;5075017;28;20076;-50
2022/01/11 03:41:09;;;;;;;67.78;25.40;;;1.60;99.90;;;;;;5075178;28;20416;-50
2022/01/11 03:43:37;;;;;;;66.82;23.35;;;1.60;99.90;;;;;;5074932;28;20097;-50
2022/01/11 03:46:04;;;;;;;67.75;24.42;;;1.60;99.90;;;;;;5074270;28;20075;-52
2022/01/11 03:48:32;;;;;;;57.03;22.33;;;1.50;99.90;;;;;;5074759;28;20134;-52
2022/01/11 03:51:00;;;;;;;57.97;21.80;;;1.50;99.90;;;;;;5091682;28;20047;-50
2022/01/11 03:53:51;;;;;;;59.13;21.98;;;1.50;99.90;;;;;;5074425;28;20098;-49
2022/01/11 03:56:21;;;;;;;54.42;20.88;;;1.50;99.90;;;;;;5074378;28;20050;-53
2022/01/11 03:58:56;;;;;;;58.65;21.65;;;1.40;99.90;;;;;;5074561;28;20047;-50
2022/01/11 04:01:23;;;;;;;77.43;24.83;;;1.40;99.90;;;;;;5074599;28;20101;-50
2022/01/11 04:03:50;;;;;;;66.47;24.08;;;1.50;99.90;;;;;;5074187;28;20567;-50
2022/01/11 04:06:17;;;;;;;60.72;23.55;;;1.50;99.90;;;;;;5090903;28;20446;-51
2022/01/11 04:08:46;;;;;;;67.47;24.23;;;1.40;99.90;;;;;;5092497;28;20480;-50
2022/01/11 04:11:16;;;;;;;61.08;22.65;;;1.40;99.90;;;;;;5074289;28;20054;-50
2022/01/11 04:13:43;;;;;;;60.92;23.65;;;1.40;99.90;;;;;;5092098;28;20042;-50
2022/01/11 04:16:11;;;;;;;62.95;24.20;;;1.50;99.90;;;;;;5073907;28;20135;-52
2022/01/11 04:18:38;;;;;;;60.55;24.45;;;1.50;99.90;;;;;;5092422;28;20040;-51
2022/01/11 04:21:05;;;;;;;59.47;22.70;;;1.50;99.90;;;;;;5074342;28;20043;-50
2022/01/11 04:23:33;;;;;;;67.00;24.52;;;1.50;99.90;;;;;;5074186;28;20047;-51
2022/01/11 04:26:01;;;;;;;62.63;24.02;;;1.50;99.90;;;;;;5073431;28;20067;-50
2022/01/11 04:28:32;;;;;;;59.22;24.83;;;1.40;99.90;;;;;;5074027;28;20471;-51
2022/01/11 04:31:01;;;;;;;66.15;23.88;;;1.40;99.90;;;;;;5073743;28;20070;-50
2022/01/11 04:33:56;;;;;;;61.35;22.40;;;1.40;99.90;;;;;;5102486;22;20040;-56
2022/01/11 04:36:23;;;;;;;60.22;24.55;;;1.40;99.90;;;;;;5112291;28;20392;-55
2022/01/11 04:38:50;;;;;;;63.38;23.55;;;1.40;99.90;;;;;;5114280;27;20062;-54
2022/01/11 04:41:17;;;;;;;59.20;23.42;;;1.40;99.90;;;;;;5110878;27;20418;-52
2022/01/11 04:43:48;;;;;;;63.10;24.15;;;1.40;99.90;;;;;;5101246;28;20059;-55
2022/01/11 04:46:18;;;;;;;56.65;21.58;;;1.40;99.90;;;;;;5085605;28;20044;-56
2022/01/11 04:48:50;;;;;;;55.33;22.60;;;1.40;99.90;;;;;;5073718;28;20051;-56
2022/01/11 04:51:16;;;;;;;62.92;23.95;;;1.40;99.90;;;;;;5083931;28;20040;-55
2022/01/11 04:53:43;;;;;;;56.53;22.17;;;1.50;99.90;;;;;;5112011;28;20507;-53
2022/01/11 04:56:15;;;;;;;58.40;23.33;;;1.50;99.90;;;;;;5093466;28;20040;-57
2022/01/11 04:58:42;;;;;;;56.47;23.17;;;1.50;99.90;;;;;;5094054;28;20071;-55
2022/01/11 05:01:09;;;;;;;57.20;21.63;;;1.50;99.90;;;;;;5093353;28;20048;-57
2022/01/11 05:03:36;;;;;;;;;;;1.60;99.90;;;;;;5092658;28;20044;-57
2022/01/11 05:06:06;;;;;;;60.75;22.73;;;1.50;99.90;;;;;;5083018;28;19920;-56
2022/01/11 05:08:35;;;;;;;60.78;21.60;;;1.50;99.90;;;;;;5073585;28;20079;-56
2022/01/11 05:11:04;;;;;;;52.30;20.63;;;1.50;99.90;;;;;;5080312;28;20039;-56
2022/01/11 05:13:31;;;;;;;54.88;21.55;;;1.50;99.90;;;;;;5111968;28;20065;-55
2022/01/11 05:16:03;;;;;;;54.92;21.85;;;1.50;99.90;;;;;;5093550;28;20063;-55
2022/01/11 05:18:30;;;;;;;;;;;1.50;99.90;;;;;;5094017;28;20434;-55
2022/01/11 05:20:57;;;;;;;56.08;20.85;;;1.50;99.90;;;;;;5106318;28;19966;-53
2022/01/11 05:23:24;;;;;;;52.17;21.17;;;1.50;99.90;;;;;;5073500;28;20071;-53
2022/01/11 05:25:51;;;;;;;64.80;22.00;;;1.40;99.90;;;;;;5072974;28;20499;-56
2022/01/11 05:28:18;;;;;;;55.20;22.00;;;1.40;99.90;;;;;;5073500;28;20040;-55
2022/01/11 05:30:45;;;;;;;49.70;21.88;;;1.40;99.90;;;;;;5099102;28;20628;-54
2022/01/11 05:33:13;;;;;;;49.33;21.35;;;1.40;99.90;;;;;;5088312;28;20373;-55
2022/01/11 05:35:41;;;;;;;51.55;20.65;;;1.40;99.90;;;;;;5111320;28;20399;-55
2022/01/11 05:38:10;;;;;;;61.17;22.33;;;1.40;99.90;;;;;;5093558;28;20040;-54
2022/01/11 05:40:37;;;;;;;52.53;21.77;;;1.40;99.90;;;;;;5111745;28;20043;-55
2022/01/11 05:43:09;;;;;;;55.17;21.20;;;1.40;99.90;;;;;;5093079;28;20419;-54
2022/01/11 05:45:37;;;;;;;52.08;21.63;;;1.40;99.90;;;;;;5111236;28;20395;-54
2022/01/11 05:48:04;;;;;;;;;;;1.50;99.90;;;;;;5095417;28;20725;-55
2022/01/11 05:50:37;;;;;;;50.53;20.98;;;1.40;99.90;;;;;;5097448;28;20014;-53
2022/01/11 05:53:06;;;;;;;57.47;22.08;;;1.50;99.90;;;;;;5097191;28;20052;-55
2022/01/11 05:55:33;;;;;;;55.15;22.40;;;1.50;99.90;;;;;;5097016;28;20046;-55
2022/01/11 05:58:01;;;;;;;59.50;22.02;;;1.50;99.90;;;;;;5115140;28;20052;-57
2022/01/11 06:00:28;;;;;;;56.03;21.60;;;1.50;99.90;;;;;;5115332;28;20321;-55
2022/01/11 06:02:55;;;;;;;56.47;21.75;;;1.50;99.90;;;;;;5097069;28;20543;-54
2022/01/11 06:05:35;;;;;;;53.42;20.27;;;1.50;99.90;;;;;;5096382;28;20136;-55
2022/01/11 06:08:03;;;;;;;55.35;22.48;;;1.50;99.90;;;;;;5096951;28;20044;-53
2022/01/11 06:10:30;;;;;;;61.35;24.58;;;1.40;99.90;;;;;;5096418;28;20468;-56
2022/01/11 06:12:57;;;;;;;57.45;22.38;;;1.50;99.90;;;;;;5097100;28;20568;-57
2022/01/11 06:15:24;;;;;;;60.80;23.27;;;1.50;99.90;;;;;;5096738;28;20043;-55
2022/01/11 06:17:51;;;;;;;61.60;24.08;;;1.40;99.90;;;;;;5096790;28;20450;-56
2022/01/11 06:20:18;;;;;;;57.55;23.40;;;1.50;99.90;;;;;;5096757;28;20056;-56
2022/01/11 06:22:45;;;;;;;57.92;21.58;;;1.50;99.90;;;;;;5096523;28;20138;-54
2022/01/11 06:25:12;;;;;;;61.78;22.33;;;1.60;99.90;;;;;;5096410;28;20048;-55
2022/01/11 06:27:40;;;;;;;55.08;22.30;;;1.60;99.90;;;;;;5096526;28;20050;-56
2022/01/11 06:30:15;;;;;;;61.85;23.25;;;1.60;99.90;;;;;;5114703;28;20040;-55
2022/01/11 06:32:44;;;;;;;56.53;21.48;;;1.60;99.90;;;;;;5095940;28;20575;-55
2022/01/11 06:35:17;;;;;;;57.20;20.92;;;1.60;99.90;;;;;;5096532;28;20047;-57
2022/01/11 06:37:50;;;;;;;62.88;22.77;;;1.60;99.90;;;;;;5096555;28;20051;-55
2022/01/11 06:40:19;;;;;;;56.83;21.48;;;1.60;99.90;;;;;;5096184;28;20043;-55
2022/01/11 06:42:50;;;;;;;63.78;22.70;;;1.70;99.90;;;;;;5096097;28;20062;-53
2022/01/11 06:45:20;;;;;;;56.55;22.73;;;1.70;99.90;;;;;;5096016;28;20043;-55
2022/01/11 06:47:48;;;;;;;66.00;24.00;;;1.70;99.90;;;;;;5096187;28;20047;-54
2022/01/11 06:50:15;;;;;;;55.67;22.98;;;1.70;99.90;;;;;;5095982;28;20613;-56
2022/01/11 06:52:43;;;;;;;64.30;23.85;;;1.70;99.90;;;;;;5095962;28;20046;-53
2022/01/11 06:55:11;;;;;;;53.88;21.25;;;1.70;99.90;;;;;;5095495;28;20043;-53
2022/01/11 06:57:38;;;;;;;68.47;23.20;;;1.60;99.90;;;;;;5096241;28;20039;-55
2022/01/11 07:00:08;;;;;;;55.47;21.42;;;1.60;99.90;;;;;;5095001;28;20153;-55
2022/01/11 07:02:38;;;;;;;60.80;23.23;;;1.50;99.90;;;;;;5095551;28;20440;-53
2022/01/11 07:05:25;;;;;;;63.03;23.20;;;1.60;99.90;;;;;;5113975;28;20055;-57
2022/01/11 07:07:52;;;;;;;;;;;1.60;99.90;;;;;;5114647;28;20380;-56
2022/01/11 07:10:19;;;;;;;53.95;20.40;;;1.50;99.90;;;;;;5095396;28;19920;-53
2022/01/11 07:12:47;;;;;;;55.58;22.38;;;1.60;99.90;;;;;;5095529;28;20077;-57
2022/01/11 07:15:14;;;;;;;61.85;23.20;;;1.60;99.90;;;;;;5113626;28;20384;-55
2022/01/11 07:17:44;;;;;;;63.30;22.38;;;1.70;99.90;;;;;;5095824;28;20373;-55
2022/01/11 07:20:12;;;;;;;59.75;20.77;;;1.70;99.90;;;;;;5095413;28;20046;-55
2022/01/11 07:22:40;;;;;;;52.33;20.17;;;1.70;99.90;;;;;;5095452;28;20036;-56
2022/01/11 07:25:09;;;;;;;56.05;20.95;;;1.70;99.90;;;;;;5095221;28;20039;-56
2022/01/11 07:27:36;;;;;;;50.67;19.90;;;1.70;99.90;;;;;;5095307;28;20070;-57
2022/01/11 07:30:05;;;;;;;56.03;20.23;;;1.70;99.90;;;;;;5095268;28;20044;-55
2022/01/11 07:32:38;;;;;;;62.45;21.80;;;1.70;99.90;;;;;;5094951;28;20047;-56
2022/01/11 07:35:06;;;;;;;56.28;22.10;;;1.70;99.90;;;;;;5095431;28;20043;-56
2022/01/11 07:37:34;;;;;;;63.70;23.20;;;1.70;99.90;;;;;;5095027;28;20046;-56
2022/01/11 07:40:03;;;;;;;62.53;23.23;;;1.70;99.90;;;;;;5094939;28;20048;-56
2022/01/11 07:42:32;;;;;;;63.33;22.17;;;1.70;99.90;;;;;;5094874;28;20138;-56
2022/01/11 07:45:11;;;;;;;55.22;18.85;;;1.70;99.90;;;;;;5113125;28;20096;-55
2022/01/11 07:47:39;;;;;;;50.20;19.00;;;1.60;99.90;;;;;;5095257;28;20048;-56
2022/01/11 07:50:07;;;;;;;77.32;25.45;;;1.70;99.90;;;;;;5094769;28;20045;-54
2022/01/11 07:52:34;;;;;;;51.88;20.02;;;1.70;99.90;;;;;;5094484;28;20569;-57
2022/01/11 07:55:04;;;;;;;47.72;18.45;;;1.70;99.90;;;;;;5093660;28;20039;-56
2022/01/11 07:57:31;;;;;;;50.42;20.00;;;1.60;99.90;;;;;;5094012;28;20039;-56
2022/01/11 07:59:58;;;;;;;49.42;18.85;;;1.60;99.90;;;;;;5094034;28;20054;-56
2022/01/11 08:02:41;;;;;;;42.03;18.33;;;1.50;99.90;;;;;;5112180;28;20147;-56
2022/01/11 08:05:18;;;;;;;32.95;14.90;;;1.50;99.90;;;;;;5093794;28;20054;-57
2022/01/11 08:07:46;;;;;;;36.45;14.30;;;1.50;99.90;;;;;;5094353;28;20062;-56
2022/01/11 08:10:18;;;;;;;32.47;13.65;;;1.50;99.90;;;;;;5094119;28;20508;-55
2022/01/11 08:12:51;;;;;;;35.60;14.40;;;1.50;99.90;;;;;;5094881;28;20063;-55
2022/01/11 08:15:18;;;;;;;35.13;13.85;;;1.50;99.90;;;;;;5094024;28;20039;-54
2022/01/11 08:17:47;;;;;;;33.35;13.90;;;1.40;99.90;;;;;;5094500;28;20039;-57
2022/01/11 08:20:17;;;;;;;34.13;14.45;;;1.50;99.90;;;;;;5094433;28;20054;-55
2022/01/11 08:22:48;;;;;;;37.22;15.35;;;1.50;99.90;;;;;;5094323;28;20044;-56
2022/01/11 08:25:16;;;;;;;30.65;14.07;;;1.40;99.90;;;;;;5093852;28;20134;-56
2022/01/11 08:27:43;;;;;;;;;;;1.40;99.90;;;;;;5094940;28;20054;-55
2022/01/11 08:30:11;;;;;;;29.75;12.05;;;1.40;99.90;;;;;;5094213;28;20000;-55
2022/01/11 08:32:41;;;;;;;39.55;14.85;;;1.30;99.90;;;;;;5094015;28;20055;-55
2022/01/11 08:35:10;;;;;;;38.55;16.40;;;1.30;99.90;;;;;;5093780;28;20040;-54
2022/01/11 08:37:37;;;;;;;;;;;1.30;99.90;;;;;;5094396;28;20081;-56
2022/01/11 08:40:05;;;;;;;29.60;12.65;;;1.30;99.90;;;;;;5094238;28;19961;-54
2022/01/11 08:42:32;;;;;;;31.05;12.38;;;1.30;99.90;;;;;;5093571;28;20047;-52
2022/01/11 08:45:00;;;;;;;26.25;11.43;;;1.30;99.90;;;;;;5112242;28;20040;-56
2022/01/11 08:47:30;;;;;;;26.25;10.68;;;1.30;99.90;;;;;;5093872;28;20047;-54
2022/01/11 08:49:59;;;;;;;27.80;11.95;;;1.30;99.90;;;;;;5093695;28;20143;-53
2022/01/11 08:52:33;;;;;;;27.63;11.02;;;1.40;99.90;;;;;;5093981;28;20518;-55
2022/01/11 08:55:02;;;;;;;28.52;12.48;;;1.40;99.90;;;;;;5093801;28;20050;-56
2022/01/11 08:57:29;;;;;;;;;;;1.50;99.90;;;;;;5094036;28;20036;-55
2022/01/11 08:59:56;;;;;;;23.35;10.93;;;1.60;99.90;;;;;;5093969;28;19932;-54
2022/01/11 09:02:23;;;;;;;25.13;11.13;;;1.60;99.90;;;;;;5093649;28;20045;-55
2022/01/11 09:04:53;;;;;;;;;;;1.60;99.90;;;;;;5094060;28;20044;-56
2022/01/11 09:07:26;;;;;;;26.50;12.27;;;1.70;99.90;;;;;;5093175;28;19955;-55
2022/01/11 09:09:56;;;;;;;28.02;12.32;;;1.90;99.90;;;;;;5093723;28;20047;-55
2022/01/11 09:12:23;;;;;;;29.23;12.48;;;2.00;99.90;;;;;;5093498;28;20050;-56
2022/01/11 09:14:52;;;;;;;31.25;14.18;;;2.10;99.90;;;;;;5093829;28;20039;-57
2022/01/11 09:17:20;;;;;;;31.38;14.40;;;2.10;99.90;;;;;;5093317;28;20400;-56
2022/01/11 09:19:47;;;;;;;31.85;15.68;;;2.10;99.90;;;;;;5093397;28;20046;-57
2022/01/11 09:22:18;;;;;;;19.52;9.95;;;2.10;99.90;;;;;;5093722;28;20043;-57
2022/01/11 09:24:46;;;;;;;21.70;10.15;;;2.20;99.90;;;;;;5097969;28;20097;-57
2022/01/11 09:27:16;;;;;;;24.65;12.10;;;2.30;99.90;;;;;;5097489;28;20047;-56
2022/01/11 09:29:45;;;;;;;20.73;11.02;;;2.40;99.90;;;;;;5097829;28;20042;-56
2022/01/11 09:32:15;;;;;;;23.58;11.07;;;2.50;99.90;;;;;;5097474;28;20043;-56
2022/01/11 09:34:43;;;;;;;18.52;9.82;;;2.60;99.90;;;;;;5097513;28;20039;-53
2022/01/11 09:37:18;;;;;;;22.85;10.50;;;2.60;99.90;;;;;;5097167;28;20131;-57
2022/01/11 09:39:46;;;;;;;21.20;9.57;;;2.70;99.90;;;;;;5097620;28;20084;-56
2022/01/11 09:42:17;;;;;;;17.65;8.63;;;2.80;99.90;;;;;;5097404;28;20054;-57
2022/01/11 09:44:46;;;;;;;18.85;8.75;;;3.00;99.90;;;;;;5097109;28;20130;-56
2022/01/11 09:47:15;;;;;;;18.10;8.68;;;3.30;99.90;;;;;;5096996;28;20051;-57
2022/01/11 09:49:46;;;;;;;21.55;9.75;;;3.30;99.90;;;;;;5097347;28;20050;-56
2022/01/11 09:52:13;;;;;;;19.35;8.77;;;3.40;99.90;;;;;;5097171;28;20049;-56
2022/01/11 09:54:44;;;;;;;20.23;9.50;;;3.40;99.90;;;;;;5097231;28;20491;-56
2022/01/11 09:57:12;;;;;;;19.63;9.25;;;3.40;99.90;;;;;;5096959;28;20050;-56
2022/01/11 09:59:39;;;;;;;18.08;9.73;;;3.30;99.90;;;;;;5096997;28;20039;-56
2022/01/11 10:02:46;;;;;;;24.92;11.73;;;3.30;99.90;;;;;;5115297;28;20043;-57
2022/01/11 10:05:25;;;;;;;29.25;13.35;;;3.30;99.90;;;;;;5096468;28;20355;-57
2022/01/11 10:07:54;;;;;;;35.80;13.35;;;3.30;99.90;;;;;;5096896;28;20071;-55
2022/01/11 10:10:26;;;;;;;30.17;14.02;;;3.30;99.90;;;;;;5097004;28;20047;-56
2022/01/11 10:13:03;;;;;;;;;;;3.30;99.90;;;;;;5097332;28;20035;-57
2022/01/11 10:15:36;;;;;;;32.10;12.77;;;3.40;99.90;;;;;;5096376;28;20384;-55
2022/01/11 10:18:31;;;;;;;35.25;15.82;;;3.40;99.90;;;;;;5096821;28;20414;-56
2022/01/11 10:20:58;;;;;;;37.33;14.93;;;3.50;99.90;;;;;;5096688;28;20047;-57
2022/01/11 10:23:33;;;;;;;30.50;13.52;;;3.40;99.90;;;;;;5096400;28;20127;-57
2022/01/11 10:26:01;;;;;;;21.45;10.52;;;3.40;99.90;;;;;;5096327;28;20066;-56
2022/01/11 10:28:34;;;;;;;20.08;9.57;;;3.50;99.90;;;;;;5096763;28;20050;-57
2022/01/11 10:31:03;;;;;;;16.00;8.57;;;3.50;99.90;;;;;;5096705;28;20492;-57
2022/01/11 10:33:34;;;;;;;18.30;8.90;;;3.50;99.90;;;;;;5110555;22;20507;-50
2022/01/11 10:36:02;;;;;;;19.80;9.32;;;3.50;99.90;;;;;;5095154;28;20503;-53
2022/01/11 10:38:40;;;;;;;20.13;9.35;;;3.50;99.90;;;;;;5092122;28;20121;-52
2022/01/11 10:41:42;;;;;;;20.13;10.10;;;3.50;99.90;;;;;;5101986;28;20058;-51
2022/01/11 10:44:12;;;;;;;16.17;8.73;;;3.50;99.90;;;;;;5075903;28;20040;-50
2022/01/11 10:46:43;;;;;;;19.73;9.88;;;3.40;99.90;;;;;;5075500;28;20063;-50
2022/01/11 10:49:31;;;;;;;21.38;9.60;;;3.30;99.90;;;;;;5075830;28;20048;-52
2022/01/11 10:52:15;;;;;;;18.00;8.82;;;3.30;99.90;;;;;;5076085;28;20047;-50
2022/01/11 10:54:45;;;;;;;22.30;9.57;;;3.30;99.90;;;;;;5075814;28;20130;-52
2022/01/11 10:57:25;;;;;;;16.45;8.35;;;3.30;99.90;;;;;;5075332;28;20036;-51
2022/01/11 11:00:06;;;;;;;20.95;9.32;;;3.30;99.90;;;;;;5075616;28;20127;-51
2022/01/11 11:02:33;;;;;;;20.00;9.98;;;3.20;99.90;;;;;;5075743;28;20153;-54
2022/01/11 11:05:15;;;;;;;19.52;9.23;;;3.30;99.90;;;;;;5075558;28;20580;-57
2022/01/11 11:07:52;;;;;;;26.77;9.52;;;3.30;99.90;;;;;;5075788;28;20060;-54
2022/01/11 11:10:29;;;;;;;19.20;8.75;;;3.30;99.90;;;;;;5075111;28;20032;-55
2022/01/11 11:12:57;;;;;;;16.48;8.82;;;3.50;99.90;;;;;;5075511;28;20131;-52
2022/01/11 11:15:34;;;;;;;17.40;8.90;;;3.60;99.90;;;;;;5075065;28;20496;-53
2022/01/11 11:18:28;;;;;;;16.42;9.13;;;3.70;99.90;;;;;;5075353;28;20044;-55
2022/01/11 11:21:18;;;;;;;17.90;9.02;;;3.80;99.90;;;;;;5075116;28;20047;-51
2022/01/11 11:23:48;;;;;;;18.48;8.23;;;3.90;99.90;;;;;;5093368;28;20074;-53
2022/01/11 11:26:18;;;;;;;14.48;7.47;;;4.00;99.90;;;;;;5093121;28;20040;-51
2022/01/11 11:28:44;;;;;;;14.85;8.70;;;4.00;99.90;;;;;;5093413;28;20047;-52
2022/01/11 11:31:11;;;;;;;18.38;9.02;;;3.90;99.90;;;;;;5093001;28;20040;-50
2022/01/11 11:33:41;;;;;;;18.00;8.63;;;3.90;99.90;;;;;;5093003;28;20044;-50
2022/01/11 11:36:11;;;;;;;17.02;9.00;;;3.90;99.90;;;;;;5092513;28;20052;-52
2022/01/11 11:39:00;;;;;;;17.60;9.07;;;3.90;99.90;;;;;;5093116;28;20048;-51
2022/01/11 11:41:28;;;;;;;19.23;10.20;;;4.00;99.90;;;;;;5093046;28;20051;-53
2022/01/11 11:44:05;;;;;;;16.13;8.50;;;3.90;99.90;;;;;;5092688;28;20044;-51
2022/01/11 11:46:42;;;;;;;18.23;9.03;;;3.70;99.90;;;;;;5092077;28;20052;-50
2022/01/11 11:49:11;;;;;;;18.75;8.32;;;3.60;99.90;;;;;;5092884;28;20089;-51
2022/01/11 11:51:39;;;;;;;21.02;8.45;;;3.50;99.90;;;;;;5092859;28;20047;-50
2022/01/11 11:54:20;;;;;;;17.23;8.98;;;3.40;99.90;;;;;;5092471;28;20511;-51
2022/01/11 11:57:00;;;;;;;19.52;9.35;;;3.40;99.90;;;;;;5092591;28;20094;-51
2022/01/11 11:59:26;;;;;;;17.80;8.52;;;3.20;99.90;;;;;;5092782;28;20044;-52
2022/01/11 12:01:58;;;;;;;18.10;9.00;;;3.30;99.90;;;;;;5093126;28;20036;-51
2022/01/11 12:04:31;;;;;;;19.17;7.82;;;3.30;99.90;;;;;;5092229;28;20457;-50
2022/01/11 12:07:18;;;;;;;15.52;7.95;;;3.40;99.90;;;;;;5092223;28;20044;-50
2022/01/11 12:09:50;;;;;;;17.17;8.38;;;3.30;99.90;;;;;;5092422;28;20052;-51
2022/01/11 12:12:39;;;;;;;20.25;9.45;;;3.40;99.90;;;;;;5092496;28;20476;-50
2022/01/11 12:15:21;;;;;;;19.17;8.77;;;3.40;99.90;;;;;;5092417;28;20115;-51
2022/01/11 12:18:08;;;;;;;16.05;8.15;;;3.30;99.90;;;;;;5092254;28;20035;-50
2022/01/11 12:20:50;;;;;;;17.50;8.45;;;3.30;99.90;;;;;;5092416;28;20131;-51
2022/01/11 12:23:51;;;;;;;18.40;8.13;;;3.20;99.90;;;;;;5092158;28;20044;-51
2022/01/11 12:26:25;;;;;;;17.00;9.10;;;3.30;99.90;;;;;;5091725;28;20039;-50
2022/01/11 12:29:05;;;;;;;15.80;7.63;;;3.30;99.90;;;;;;5092228;28;20043;-51
2022/01/11 12:31:53;;;;;;;17.67;8.93;;;3.40;99.90;;;;;;5092290;28;20047;-51
2022/01/11 12:34:45;;;;;;;19.55;9.00;;;3.40;99.90;;;;;;5091930;28;20040;-50
2022/01/11 12:37:23;;;;;;;18.73;8.50;;;3.40;99.90;;;;;;5091594;28;20507;-51
2022/01/11 12:40:12;;;;;;;19.52;8.40;;;3.30;99.90;;;;;;5091865;28;20051;-53
2022/01/11 12:42:54;;;;;;;19.90;9.52;;;3.30;99.90;;;;;;5091965;28;20458;-50
2022/01/11 12:45:49;;;;;;;29.15;10.77;;;3.40;99.90;;;;;;5091487;28;20051;-52
2022/01/11 12:48:57;;;;;;;22.55;9.80;;;3.50;99.90;;;;;;5091587;28;20048;-54
2022/01/11 12:51:33;;;;;;;22.38;9.95;;;3.60;99.90;;;;;;5091878;28;20059;-50
2022/01/11 12:54:21;;;;;;;20.75;9.90;;;3.80;99.90;;;;;;5091774;28;20058;-52
2022/01/11 12:56:54;;;;;;;26.20;10.32;;;4.00;99.90;;;;;;5091124;28;20412;-52
2022/01/11 12:59:25;;;;;;;21.17;10.50;;;4.10;99.90;;;;;;5091360;28;20036;-52
2022/01/11 13:02:08;;;;;;;19.48;10.23;;;4.30;99.90;;;;;;5091708;28;20067;-52
2022/01/11 13:04:45;;;;;;;23.00;10.23;;;4.40;99.90;;;;;;5092097;28;20447;-50
2022/01/11 13:07:24;;;;;;;18.23;9.18;;;4.40;99.90;;;;;;5091347;28;20082;-53